createdAt,value
2019-06-10T00:00:57.657Z,3.90
2019-06-10T00:06:23.051Z,3.80
2019-06-10T00:11:48.311Z,3.33
2019-06-10T00:17:13.955Z,3.03
2019-06-10T00:22:40.782Z,3.47
2019-06-10T00:28:07.343Z,3.77
2019-06-10T00:33:33.312Z,3.47
2019-06-10T00:38:59.363Z,3.67
2019-06-10T00:44:25.210Z,3.33
2019-06-10T00:49:51.435Z,3.80
2019-06-10T00:55:17.403Z,3.10
2019-06-10T01:00:43.051Z,3.17
2019-06-10T01:06:08.543Z,3.37
2019-06-10T01:11:34.318Z,3.20
2019-06-10T01:17:01.260Z,3.00
2019-06-10T01:22:27.126Z,3.47
2019-06-10T01:27:52.455Z,4.00
2019-06-10T01:33:18.399Z,3.08
2019-06-10T01:38:43.341Z,3.13
2019-06-10T01:44:11.524Z,3.22
2019-06-10T01:49:36.544Z,3.33
2019-06-10T01:55:01.880Z,3.60
2019-06-10T02:00:32.009Z,3.20
2019-06-10T02:11:18.951Z,3.37
2019-06-10T02:16:44.319Z,3.08
2019-06-10T02:22:10.749Z,3.47
2019-06-10T02:27:36.816Z,3.50
2019-06-10T02:33:02.723Z,2.73
2019-06-10T02:38:37.769Z,3.43
2019-06-10T02:43:55.886Z,3.17
2019-06-10T02:49:42.708Z,3.20
2019-06-10T02:54:49.083Z,2.83
2019-06-10T03:00:24.732Z,3.37
2019-06-10T03:05:46.774Z,3.30
2019-06-10T03:11:14.087Z,3.15
2019-06-10T03:16:42.169Z,3.37
2019-06-10T03:22:07.624Z,3.23
2019-06-10T03:27:32.920Z,3.47
2019-06-10T03:32:58.322Z,3.52
2019-06-10T03:38:26.988Z,3.00
2019-06-10T03:43:52.967Z,2.98
2019-06-10T03:49:19.138Z,2.95
2019-06-10T03:54:44.209Z,2.80
2019-06-10T04:00:11.295Z,3.67
2019-06-10T04:05:37.331Z,2.83
2019-06-10T04:11:03.237Z,3.10
2019-06-10T04:16:28.371Z,2.93
2019-06-10T04:21:53.925Z,3.10
2019-06-10T04:27:19.782Z,3.47
2019-06-10T04:32:46.127Z,3.03
2019-06-10T04:38:13.118Z,3.10
2019-06-10T04:43:38.307Z,2.97
2019-06-10T04:49:03.334Z,3.23
2019-06-10T04:54:29.908Z,3.17
2019-06-10T04:59:55.685Z,3.00
2019-06-10T05:05:23.654Z,2.80
2019-06-10T05:10:49.570Z,3.23
2019-06-10T05:16:14.918Z,2.65
2019-06-10T05:21:42.427Z,2.63
2019-06-10T05:27:07.407Z,2.80
2019-06-10T05:32:33.360Z,2.37
2019-06-10T05:37:59.290Z,2.90
2019-06-10T05:43:25.248Z,2.87
2019-06-10T05:48:52.605Z,3.60
2019-06-10T05:54:18.660Z,2.83
2019-06-10T05:59:44.291Z,2.97
2019-06-10T06:05:12.888Z,2.53
2019-06-10T06:10:38.028Z,2.40
2019-06-10T06:16:03.682Z,2.25
2019-06-10T06:21:34.494Z,2.40
2019-06-10T06:26:56.782Z,2.43
2019-06-10T06:32:23.638Z,2.60
2019-06-10T06:37:48.837Z,2.10
2019-06-10T06:43:14.615Z,2.17
2019-06-10T06:48:42.954Z,2.30
2019-06-10T06:54:06.400Z,2.20
2019-06-10T06:59:33.840Z,2.33
2019-06-10T07:04:58.290Z,2.52
2019-06-10T07:10:24.545Z,2.53
2019-06-10T07:16:03.036Z,2.93
2019-06-10T07:21:28.091Z,2.60
2019-06-10T07:26:54.973Z,3.07
2019-06-10T07:32:22.746Z,2.60
2019-06-10T07:37:49.310Z,2.50
2019-06-10T07:43:14.252Z,2.67
2019-06-10T07:48:42.169Z,2.30
2019-06-10T07:54:07.452Z,2.27
2019-06-10T07:59:33.833Z,2.00
2019-06-10T08:04:59.042Z,2.67
2019-06-10T08:10:24.893Z,2.47
2019-06-10T08:15:49.923Z,2.53
2019-06-10T08:21:15.647Z,2.17
2019-06-10T08:26:43.978Z,3.40
2019-06-10T08:32:08.000Z,2.30
2019-06-10T08:37:33.779Z,2.33
2019-06-10T08:42:58.633Z,2.55
2019-06-10T08:48:24.435Z,2.63
2019-06-10T08:53:50.113Z,2.23
2019-06-10T08:59:16.427Z,2.45
2019-06-10T09:04:45.429Z,2.30
2019-06-10T09:10:13.508Z,2.40
2019-06-10T09:15:38.749Z,2.00
2019-06-10T09:21:04.503Z,2.27
2019-06-10T09:26:29.835Z,2.70
2019-06-10T09:31:55.917Z,3.55
2019-06-10T09:37:23.352Z,3.23
2019-06-10T09:42:52.374Z,3.70
2019-06-10T09:48:17.332Z,4.27
2019-06-10T09:53:50.146Z,4.17
2019-06-10T09:59:12.396Z,4.70
2019-06-10T10:04:37.698Z,5.45
2019-06-10T10:10:05.488Z,4.97
2019-06-10T10:15:34.525Z,5.00
2019-06-10T10:21:00.413Z,4.90
2019-06-10T10:26:25.050Z,5.37
2019-06-10T10:31:52.399Z,5.30
2019-06-10T10:37:16.935Z,4.60
2019-06-10T10:42:48.162Z,4.47
2019-06-10T10:48:09.428Z,5.70
2019-06-10T10:53:35.381Z,5.25
2019-06-10T10:58:58.841Z,4.33
2019-06-10T11:04:23.363Z,4.40
2019-06-10T11:09:48.444Z,4.40
2019-06-10T11:15:13.665Z,4.20
2019-06-10T11:20:37.326Z,3.90
2019-06-10T11:26:00.921Z,4.15
2019-06-10T11:31:24.172Z,4.30
2019-06-10T11:36:47.960Z,3.73
2019-06-10T11:42:13.243Z,4.40
2019-06-10T11:47:36.619Z,3.77
2019-06-10T11:53:01.429Z,5.80
2019-06-10T11:58:25.475Z,4.23
2019-06-10T12:03:48.765Z,4.23
2019-06-10T12:09:13.684Z,4.47
2019-06-10T12:14:37.590Z,4.30
2019-06-10T12:20:03.169Z,4.80
2019-06-10T12:25:35.032Z,4.37
2019-06-10T12:30:56.223Z,4.57
2019-06-10T12:36:18.618Z,4.78
2019-06-10T12:41:42.877Z,4.87
2019-06-10T12:47:08.367Z,5.13
2019-06-10T12:52:32.484Z,4.40
2019-06-10T12:57:56.313Z,4.42
2019-06-10T13:03:20.465Z,5.00
2019-06-10T13:08:46.588Z,5.50
2019-06-10T13:14:09.900Z,5.40
2019-06-10T13:19:34.392Z,5.47
2019-06-10T13:24:58.631Z,5.05
2019-06-10T13:30:25.558Z,5.73
2019-06-10T13:35:48.822Z,5.30
2019-06-10T13:41:12.127Z,5.43
2019-06-10T13:46:35.413Z,5.30
2019-06-10T13:51:59.359Z,5.90
2019-06-10T13:57:23.593Z,5.80
2019-06-10T14:02:46.870Z,5.60
2019-06-10T14:08:12.698Z,6.43
2019-06-10T14:13:34.792Z,5.65
2019-06-10T14:18:58.090Z,5.70
2019-06-10T14:24:22.848Z,6.30
2019-06-10T14:29:46.343Z,5.70
2019-06-10T14:35:15.270Z,5.80
2019-06-10T14:40:35.955Z,5.67
2019-06-10T14:45:59.185Z,5.87
2019-06-10T14:51:23.038Z,5.50
2019-06-10T14:56:53.487Z,5.63
2019-06-10T15:02:12.895Z,5.33
2019-06-10T15:07:36.732Z,5.53
2019-06-10T15:13:02.168Z,5.40
2019-06-10T15:18:25.109Z,5.00
2019-06-10T15:23:48.495Z,5.40
2019-06-10T15:29:15.589Z,5.53
2019-06-10T15:34:36.958Z,5.62
2019-06-10T15:40:00.353Z,7.27
2019-06-10T15:45:24.581Z,6.10
2019-06-10T15:50:47.832Z,6.47
2019-06-10T15:56:22.090Z,5.80
2019-06-10T16:01:36.165Z,5.87
2019-06-10T16:06:59.478Z,6.00
2019-06-10T16:12:26.557Z,5.50
2019-06-10T16:17:48.281Z,6.12
2019-06-10T16:23:12.203Z,6.03
2019-06-10T16:28:36.567Z,6.30
2019-06-10T16:33:59.855Z,6.50
2019-06-10T16:39:26.594Z,7.33
2019-06-10T16:44:49.203Z,7.87
2019-06-10T16:50:12.579Z,8.00
2019-06-10T16:55:35.967Z,8.37
2019-06-10T17:00:59.096Z,8.25
2019-06-10T17:06:23.978Z,8.13
2019-06-10T17:11:47.400Z,8.40
2019-06-10T17:17:12.722Z,7.73
2019-06-10T17:22:35.723Z,8.30
2019-06-10T17:28:16.219Z,8.50
2019-06-10T17:33:27.223Z,14.60
2019-06-10T17:38:52.217Z,8.83
2019-06-10T17:44:15.983Z,9.20
2019-06-10T17:49:38.992Z,8.70
2019-06-10T17:55:03.388Z,8.73
2019-06-10T18:00:27.866Z,9.43
2019-06-10T18:05:53.288Z,9.60
2019-06-10T18:11:16.774Z,9.70
2019-06-10T18:16:42.534Z,9.45
2019-06-10T18:22:05.092Z,9.23
2019-06-10T18:27:29.000Z,9.37
2019-06-10T18:32:52.640Z,9.40
2019-06-10T18:38:16.769Z,9.47
2019-06-10T18:43:40.101Z,19.43
2019-06-10T18:49:03.401Z,9.33
2019-06-10T18:54:25.121Z,9.80
2019-06-10T18:59:46.871Z,9.70
2019-06-10T19:05:08.592Z,10.13
2019-06-10T19:10:34.338Z,9.50
2019-06-10T19:15:56.285Z,9.55
2019-06-10T19:21:18.024Z,9.78
2019-06-10T19:26:44.793Z,9.70
2019-06-10T19:32:04.232Z,9.55
2019-06-10T19:37:26.005Z,10.23
2019-06-10T19:42:47.731Z,10.30
2019-06-10T19:48:12.284Z,10.10
2019-06-10T19:53:34.582Z,9.95
2019-06-10T19:58:56.577Z,10.60
2019-06-10T20:04:22.614Z,10.58
2019-06-10T20:09:46.233Z,10.48
2019-06-10T20:15:07.861Z,10.32
2019-06-10T20:20:29.646Z,16.05
2019-06-10T20:25:52.748Z,11.63
2019-06-10T20:31:14.851Z,10.58
2019-06-10T20:36:37.377Z,11.55
2019-06-10T20:41:59.193Z,11.08
2019-06-10T20:47:22.950Z,11.08
2019-06-10T20:52:46.071Z,10.40
2019-06-10T20:58:07.952Z,10.35
2019-06-10T21:03:32.185Z,32.17
2019-06-10T21:08:54.785Z,11.53
2019-06-10T21:14:16.652Z,11.60
2019-06-10T21:19:38.383Z,11.80
2019-06-10T21:25:02.484Z,10.82
2019-06-10T21:30:40.703Z,11.80
2019-06-10T21:35:54.812Z,11.18
2019-06-10T21:41:17.448Z,11.37
2019-06-10T21:46:43.147Z,11.50
2019-06-10T21:52:05.814Z,10.90
2019-06-10T21:57:29.226Z,11.47
2019-06-10T22:02:58.048Z,11.70
2019-06-10T22:08:17.486Z,11.30
2019-06-10T22:13:40.888Z,11.18
2019-06-10T22:19:04.390Z,11.63
2019-06-10T22:24:27.701Z,11.43
2019-06-10T22:29:51.913Z,10.80
2019-06-10T22:35:17.376Z,10.50
2019-06-10T22:40:42.599Z,11.00
2019-06-10T22:46:05.631Z,11.10
2019-06-10T22:51:28.886Z,10.93
2019-06-10T22:56:54.234Z,11.28
2019-06-10T23:02:17.129Z,11.33
2019-06-10T23:07:40.362Z,11.43
2019-06-10T23:13:03.643Z,10.90
2019-06-10T23:18:27.734Z,10.50
2019-06-10T23:23:53.860Z,11.73
2019-06-10T23:29:15.807Z,10.67
2019-06-10T23:34:39.085Z,11.57
2019-06-10T23:40:04.286Z,11.17
2019-06-10T23:45:27.507Z,11.00
2019-06-10T23:50:54.001Z,11.30
2019-06-10T23:56:15.790Z,11.27
